FADR weather

Dunnottar Airfield
Dunnottar, Gauteng, South Africa

Public forecast

Using degrees Celsius for public forecast. Weather courtesy of forecast.io.

Closest aviation weather report (METAR) to Dunnottar Airfield

Closest report is Springs Airfield, 7.3 nm (13.5 km) NNW. Retrieved 2020/02/17 15:00 UTC (8 minutes ago):

FASI 171500Z AUTO 15003KT //// // ////// 29/13 Q1023

Closest aviation forecast (TAF) to Dunnottar Airfield

Closest forecast is OR Tambo International Airport, 17.6 nm (32.5 km) NW. Retrieved 2020/02/17 12:00 UTC (3 hours ago):

TAF FAOR 171000Z 1712/1818 23008KT 9999 BKN035 TX28/1713Z TN18/1804Z PROB30 TEMPO 1712/1715 FEW040TCU BECMG 1716/1718 VRB03KT CAVOK BECMG 1719/1721 09014KT BECMG 1800/1802 BKN008 BECMG 1804/1806 BKN015 BECMG 1807/1809 03009KT BKN025 PROB40 TEMPO 1810/1813 FEW035TCU PROB40 TEMPO 1813/1818 -TSRA FEW030CB